Rocksprings, Texas
Current Conditions -  °F | °C
As of 3:50 PM on Saturday 20 Dec 2014 (Local Time) from KECU Reporting Station
Few Clouds Few Clouds  
Wind Chill: 61°   Ceiling: Unl
Heat Index: 61°   Visibility: 10mi
Dew Point: 45°   Wind: 5mph
Humidity: 55%   Direction: 160°SSE
Pressure: 30.1"   Gusts: NA
Location:  30.02°N, 100.21°W
Report Text: KECU 202150Z AUTO 16004KT 10SM FEW031 16/07 A3010 RMK AO2
Loading
Personal Weather Stations






























Interactive Weather Map New forecast layout! Learn more

10-Day Weather Forecast

Advertisements
Track Severe Weather on mobile